Time;durP1;ratioP1;P1;durP2;ratioP2;P2;SDS_P1;SDS_P2;PMS_P1;PMS_P2;Temp;Humidity;BMP_temperature;BMP_pressure;BME280_temperature;BME280_humidity;BME280_pressure;Samples;Min_cycle;Max_cycle;Signal;HPM_P1;HPM_P2
2022/07/26 00:01:54;;;;;;;8.65;4.13;;;;;;;;;;5111532;28;20028;-72
2022/07/26 00:05:11;;;;;;;6.40;3.47;;;;;;;;;;5111297;27;20466;-72
2022/07/26 00:07:37;;;;;;;7.43;4.68;;;;;;;;;;5111244;28;20028;-72
2022/07/26 00:10:19;;;;;;;7.05;4.60;;;;;;;;;;5111414;27;20854;-72
2022/07/26 00:14:45;;;;;;;6.32;3.90;;;;;;;;;;5111893;27;20409;-72
2022/07/26 00:17:11;;;;;;;7.90;4.60;;;;;;;;;;5127166;28;20028;-72
2022/07/26 00:19:37;;;;;;;7.85;4.55;;;;;;;;;;5110710;28;20506;-72
2022/07/26 00:25:05;;;;;;;6.45;3.88;;;;;;;;;;5111523;27;20442;-72
2022/07/26 00:27:32;;;;;;;6.70;4.18;;;;;;;;;;5126677;28;20156;-72
2022/07/26 00:29:58;;;;;;;7.25;3.67;;;;;;;;;;5111146;28;20024;-72
2022/07/26 00:32:24;;;;;;;6.55;3.97;;;;;;;;;;5126654;28;20028;-72
2022/07/26 00:34:51;;;;;;;6.55;4.28;;;;;;;;;;5111091;28;20020;-73
2022/07/26 00:39:01;;;;;;;7.28;4.43;;;;;;;;;;5111592;27;20388;-72
2022/07/26 00:43:06;;;;;;;7.53;4.00;;;;;;;;;;5111455;27;20501;-72
2022/07/26 00:47:49;;;;;;;7.63;4.35;;;;;;;;;;5111138;27;20454;-73
2022/07/26 00:53:20;;;;;;;7.90;4.18;;;;;;;;;;5091801;27;20484;-72
2022/07/26 00:58:00;;;;;;;7.53;4.28;;;;;;;;;;5111417;27;20794;-72
2022/07/26 01:00:26;;;;;;;8.13;4.45;;;;;;;;;;5111107;28;20032;-72
2022/07/26 01:02:53;;;;;;;9.43;4.47;;;;;;;;;;5111404;28;20031;-72
2022/07/26 01:07:42;;;;;;;6.70;4.20;;;;;;;;;;5110866;27;20919;-71
2022/07/26 01:10:12;;;;;;;7.13;4.40;;;;;;;;;;5111320;28;20032;-71
2022/07/26 01:13:05;;;;;;;10.07;4.78;;;;;;;;;;5131818;27;20116;-71
2022/07/26 01:17:10;;;;;;;6.72;4.38;;;;;;;;;;5112005;27;20872;-72
2022/07/26 01:19:36;;;;;;;7.20;4.90;;;;;;;;;;5127038;28;20394;-71
2022/07/26 01:23:51;;;;;;;7.70;4.63;;;;;;;;;;5111432;27;20416;-71
2022/07/26 01:26:17;;;;;;;6.95;4.80;;;;;;;;;;5111566;28;20024;-72
2022/07/26 01:29:11;;;;;;;10.13;5.65;;;;;;;;;;5111412;27;20445;-71
2022/07/26 01:33:02;;;;;;;8.85;5.07;;;;;;;;;;5111896;27;20397;-72
2022/07/26 01:35:58;;;;;;;9.25;5.20;;;;;;;;;;5111689;27;20769;-72
2022/07/26 01:38:25;;;;;;;10.60;4.97;;;;;;;;;;5111288;28;20024;-72
2022/07/26 01:40:51;;;;;;;9.27;5.53;;;;;;;;;;5109955;28;20024;-71
2022/07/26 01:43:17;;;;;;;7.97;5.38;;;;;;;;;;5110821;28;20463;-71
2022/07/26 01:45:43;;;;;;;9.05;5.30;;;;;;;;;;5111074;28;20020;-72
2022/07/26 01:48:09;;;;;;;8.45;4.90;;;;;;;;;;5111022;28;20020;-71
2022/07/26 01:50:36;;;;;;;8.82;5.32;;;;;;;;;;5110580;28;20039;-71
2022/07/26 01:53:03;;;;;;;8.02;5.13;;;;;;;;;;5109607;28;20024;-71
2022/07/26 01:56:01;;;;;;;8.60;5.43;;;;;;;;;;5111919;27;20408;-72
2022/07/26 01:58:27;;;;;;;9.50;5.68;;;;;;;;;;5110870;28;20059;-71
2022/07/26 02:00:53;;;;;;;9.55;5.45;;;;;;;;;;5111604;28;20395;-72
2022/07/26 02:03:20;;;;;;;9.20;5.50;;;;;;;;;;5111093;28;20472;-72
2022/07/26 02:07:08;;;;;;;7.55;5.07;;;;;;;;;;5091913;27;20412;-71
2022/07/26 02:11:02;;;;;;;8.55;5.22;;;;;;;;;;5122534;27;20393;-72
2022/07/26 02:21:22;;;;;;;7.30;4.88;;;;;;;;;;5122943;27;20397;-72
2022/07/26 02:25:28;;;;;;;7.82;4.63;;;;;;;;;;5122307;27;20481;-72
2022/07/26 02:27:54;;;;;;;8.07;4.50;;;;;;;;;;5090856;28;20036;-71
2022/07/26 02:32:00;;;;;;;7.13;4.68;;;;;;;;;;5122687;27;20409;-72
2022/07/26 02:34:26;;;;;;;7.25;4.43;;;;;;;;;;5089664;28;20025;-72
2022/07/26 02:38:42;;;;;;;7.60;5.10;;;;;;;;;;5123037;27;20404;-72
2022/07/26 02:41:49;;;;;;;7.65;4.80;;;;;;;;;;5123199;27;20947;-72
2022/07/26 02:44:15;;;;;;;8.27;5.25;;;;;;;;;;5090864;28;20028;-71
2022/07/26 02:49:57;;;;;;;9.02;5.90;;;;;;;;;;5122739;27;20402;-71
2022/07/26 02:52:23;;;;;;;10.02;5.55;;;;;;;;;;5090858;28;20154;-72
2022/07/26 02:55:18;;;;;;;9.02;5.93;;;;;;;;;;5122557;27;20394;-71
2022/07/26 02:58:11;;;;;;;10.23;5.30;;;;;;;;;;5122823;27;20406;-73
2022/07/26 03:07:36;;;;;;;11.85;6.60;;;;;;;;;;5122588;27;20496;-72
2022/07/26 03:10:02;;;;;;;10.52;6.57;;;;;;;;;;5090918;28;20033;-72
2022/07/26 03:15:18;;;;;;;12.50;8.63;;;;;;;;;;5122623;27;20745;-72
2022/07/26 03:17:45;;;;;;;8.95;5.93;;;;;;;;;;5091223;28;20025;-72
2022/07/26 03:20:11;;;;;;;10.25;6.07;;;;;;;;;;5090853;28;20030;-72
2022/07/26 03:24:57;;;;;;;9.05;5.78;;;;;;;;;;5122765;27;20401;-71
2022/07/26 03:27:23;;;;;;;8.77;5.43;;;;;;;;;;5090943;28;20032;-71
2022/07/26 03:29:49;;;;;;;8.95;5.35;;;;;;;;;;5090486;28;20059;-71
2022/07/26 03:32:16;;;;;;;8.07;5.53;;;;;;;;;;5091135;28;20157;-72
2022/07/26 03:34:42;;;;;;;8.40;5.75;;;;;;;;;;5089526;28;20031;-72
2022/07/26 03:37:08;;;;;;;11.48;5.38;;;;;;;;;;5090438;28;20055;-72
2022/07/26 03:39:36;;;;;;;9.23;6.10;;;;;;;;;;5090898;28;20099;-73
2022/07/26 03:42:03;;;;;;;8.02;5.10;;;;;;;;;;5090661;28;20376;-72
2022/07/26 03:44:54;;;;;;;9.95;5.28;;;;;;;;;;5122760;27;20393;-72
2022/07/26 03:49:27;;;;;;;8.95;5.68;;;;;;;;;;5122382;27;20401;-72
2022/07/26 03:52:37;;;;;;;8.00;5.65;;;;;;;;;;5122922;27;20398;-73
2022/07/26 03:58:41;;;;;;;8.23;5.30;;;;;;;;;;5120261;27;20885;-72
2022/07/26 04:01:07;;;;;;;8.60;5.38;;;;;;;;;;5090898;28;20105;-73
2022/07/26 04:03:34;;;;;;;8.70;5.35;;;;;;;;;;5089161;28;20020;-72
2022/07/26 04:11:50;;;;;;;13.63;5.75;;;;;;;;;;5122727;27;20869;-72
2022/07/26 04:14:16;;;;;;;8.00;5.53;;;;;;;;;;5089594;28;20552;-72
2022/07/26 04:16:43;;;;;;;8.80;5.90;;;;;;;;;;5090837;28;20024;-72
2022/07/26 04:20:35;;;;;;;9.68;6.38;;;;;;;;;;5123239;27;20404;-73
2022/07/26 04:23:01;;;;;;;9.98;5.85;;;;;;;;;;5089600;28;20090;-72
2022/07/26 04:26:29;;;;;;;9.23;5.63;;;;;;;;;;5122539;27;20397;-72
2022/07/26 04:30:01;;;;;;;9.52;6.13;;;;;;;;;;5123172;27;20412;-72
2022/07/26 04:34:59;;;;;;;8.82;6.03;;;;;;;;;;5122933;27;20408;-72
2022/07/26 04:37:26;;;;;;;11.63;5.97;;;;;;;;;;5090928;28;20024;-73
2022/07/26 04:42:54;;;;;;;10.85;6.32;;;;;;;;;;5122843;27;20889;-73
2022/07/26 04:49:05;;;;;;;11.85;6.70;;;;;;;;;;5122891;27;20404;-72
2022/07/26 04:53:26;;;;;;;10.13;6.57;;;;;;;;;;5122388;27;20405;-72
2022/07/26 04:56:57;;;;;;;9.68;5.78;;;;;;;;;;5123320;27;20398;-72
2022/07/26 04:59:23;;;;;;;11.98;6.50;;;;;;;;;;5090886;28;20028;-72
2022/07/26 05:02:40;;;;;;;9.35;5.60;;;;;;;;;;5123037;27;20398;-72
2022/07/26 05:05:07;;;;;;;8.43;5.75;;;;;;;;;;5090919;28;20146;-72
2022/07/26 05:07:43;;;;;;;9.75;6.38;;;;;;;;;;5090643;28;20024;-68
2022/07/26 05:10:10;;;;;;;10.40;6.32;;;;;;;;;;5090979;28;20107;-68
2022/07/26 05:12:36;;;;;;;13.32;9.75;;;;;;;;;;5089531;28;20027;-67
2022/07/26 05:15:03;;;;;;;16.30;8.10;;;;;;;;;;5090471;28;20110;-70
2022/07/26 05:17:29;;;;;;;15.00;8.38;;;;;;;;;;5089435;28;20421;-70
2022/07/26 05:19:55;;;;;;;21.00;8.75;;;;;;;;;;5090634;28;20107;-70
2022/07/26 05:22:21;;;;;;;9.80;6.30;;;;;;;;;;5090201;28;20074;-70
2022/07/26 05:25:13;;;;;;;12.98;5.90;;;;;;;;;;5120732;27;20801;-68
2022/07/26 05:27:40;;;;;;;10.32;6.47;;;;;;;;;;5090810;28;20032;-68
2022/07/26 05:30:07;;;;;;;9.80;6.85;;;;;;;;;;5090888;28;20024;-69
2022/07/26 05:32:33;;;;;;;9.23;6.30;;;;;;;;;;5090743;28;20016;-69
2022/07/26 05:34:59;;;;;;;9.48;6.68;;;;;;;;;;5090373;28;20116;-69
2022/07/26 05:37:25;;;;;;;9.95;6.50;;;;;;;;;;5089500;28;20115;-69
2022/07/26 05:39:51;;;;;;;11.70;6.65;;;;;;;;;;5090831;28;20099;-68
2022/07/26 05:43:57;;;;;;;11.95;6.10;;;;;;;;;;5122614;27;20400;-68
2022/07/26 05:46:23;;;;;;;8.73;5.78;;;;;;;;;;5090919;28;20500;-68
2022/07/26 05:48:50;;;;;;;9.07;6.10;;;;;;;;;;5089146;28;20024;-69
2022/07/26 05:51:16;;;;;;;10.68;6.50;;;;;;;;;;5090873;28;20023;-68
2022/07/26 05:56:29;;;;;;;14.00;6.57;;;;;;;;;;5122199;27;20400;-68
2022/07/26 05:58:55;;;;;;;12.13;6.97;;;;;;;;;;5090888;28;20028;-68
2022/07/26 06:01:21;;;;;;;11.77;7.00;;;;;;;;;;5090828;28;20372;-68
2022/07/26 06:03:47;;;;;;;12.27;7.03;;;;;;;;;;5089137;28;20114;-69
2022/07/26 06:06:51;;;;;;;12.00;7.45;;;;;;;;;;5122793;27;20397;-68
2022/07/26 06:09:17;;;;;;;10.38;6.57;;;;;;;;;;5089591;28;20036;-69
2022/07/26 06:11:43;;;;;;;11.77;7.18;;;;;;;;;;5090724;28;20484;-69
2022/07/26 06:14:09;;;;;;;11.07;6.97;;;;;;;;;;5090801;28;20099;-69
2022/07/26 06:16:35;;;;;;;8.35;6.15;;;;;;;;;;5090755;28;20033;-69
2022/07/26 06:21:16;;;;;;;9.48;6.05;;;;;;;;;;5088220;28;20337;-68
2022/07/26 06:23:43;;;;;;;9.05;6.38;;;;;;;;;;5111171;28;20095;-68
2022/07/26 06:26:09;;;;;;;9.77;6.90;;;;;;;;;;5110800;28;20054;-68
2022/07/26 06:29:15;;;;;;;12.98;7.95;;;;;;;;;;5120616;27;20804;-69
2022/07/26 06:31:41;;;;;;;9.98;7.05;;;;;;;;;;5090490;28;20089;-69
2022/07/26 06:34:07;;;;;;;10.38;6.63;;;;;;;;;;5089592;28;20036;-69
2022/07/26 06:36:33;;;;;;;10.90;6.85;;;;;;;;;;5091249;28;20024;-69
2022/07/26 06:38:59;;;;;;;8.70;6.38;;;;;;;;;;5090379;28;20095;-72
2022/07/26 06:41:26;;;;;;;10.00;6.93;;;;;;;;;;5090678;28;20125;-72
2022/07/26 06:47:50;;;;;;;10.98;6.93;;;;;;;;;;5123049;27;20398;-72
2022/07/26 06:50:16;;;;;;;9.40;6.32;;;;;;;;;;5090854;28;20032;-72
2022/07/26 06:52:42;;;;;;;10.32;6.35;;;;;;;;;;5090609;28;20016;-72
2022/07/26 06:55:08;;;;;;;9.00;6.50;;;;;;;;;;5090819;28;20028;-72
2022/07/26 06:57:35;;;;;;;12.07;6.75;;;;;;;;;;5089479;28;20480;-73
2022/07/26 07:00:03;;;;;;;10.05;6.70;;;;;;;;;;5090385;28;20477;-73
2022/07/26 07:02:30;;;;;;;10.98;7.00;;;;;;;;;;5090683;28;20020;-72
2022/07/26 07:05:20;;;;;;;9.23;6.55;;;;;;;;;;5123227;27;20394;-72
2022/07/26 07:07:46;;;;;;;10.73;6.63;;;;;;;;;;5090378;28;20028;-72
2022/07/26 07:10:13;;;;;;;10.55;6.90;;;;;;;;;;5089648;28;20388;-72
2022/07/26 07:12:40;;;;;;;9.48;6.75;;;;;;;;;;5090784;28;20016;-72
2022/07/26 07:15:06;;;;;;;9.70;6.38;;;;;;;;;;5090438;28;20070;-72
2022/07/26 07:17:33;;;;;;;10.65;7.93;;;;;;;;;;5090787;28;20469;-75
2022/07/26 07:21:13;;;;;;;11.30;8.02;;;;;;;;;;5111395;27;20416;-74
2022/07/26 07:23:39;;;;;;;9.13;6.55;;;;;;;;;;5111280;28;20046;-73
2022/07/26 07:26:05;;;;;;;9.63;6.60;;;;;;;;;;5111180;28;20028;-74
2022/07/26 07:28:37;;;;;;;9.98;7.35;;;;;;;;;;5109546;28;20031;-73
2022/07/26 07:31:03;;;;;;;12.18;6.75;;;;;;;;;;5109887;28;20028;-73
2022/07/26 07:33:29;;;;;;;8.98;6.40;;;;;;;;;;5111122;28;20059;-74
2022/07/26 07:35:55;;;;;;;9.25;6.47;;;;;;;;;;5110676;28;20460;-74
2022/07/26 07:38:21;;;;;;;10.70;7.38;;;;;;;;;;5110913;28;20031;-74
2022/07/26 07:40:48;;;;;;;9.98;7.10;;;;;;;;;;5110849;28;20100;-73
2022/07/26 07:43:14;;;;;;;8.63;6.25;;;;;;;;;;5106252;28;20020;-73
2022/07/26 07:45:40;;;;;;;9.00;6.38;;;;;;;;;;5109172;28;20361;-73
2022/07/26 07:49:38;;;;;;;9.93;7.05;;;;;;;;;;5110676;27;20434;-73
2022/07/26 07:52:36;;;;;;;9.35;7.20;;;;;;;;;;5111333;27;20416;-74
2022/07/26 07:55:02;;;;;;;10.95;7.50;;;;;;;;;;5111224;28;20472;-74
2022/07/26 07:57:28;;;;;;;11.02;6.72;;;;;;;;;;5126465;28;20103;-74
2022/07/26 07:59:55;;;;;;;10.15;7.53;;;;;;;;;;5126834;28;20020;-74
2022/07/26 08:02:21;;;;;;;9.77;6.88;;;;;;;;;;5110906;28;20020;-74
2022/07/26 08:04:47;;;;;;;10.77;6.82;;;;;;;;;;5126212;28;20055;-74
2022/07/26 08:07:13;;;;;;;10.05;6.30;;;;;;;;;;5110869;28;20020;-73
2022/07/26 08:11:50;;;;;;;12.40;6.93;;;;;;;;;;5110764;27;20446;-72
2022/07/26 08:14:17;;;;;;;9.40;6.63;;;;;;;;;;5110091;28;20028;-73
2022/07/26 08:16:43;;;;;;;10.68;8.13;;;;;;;;;;5109719;28;20024;-73
2022/07/26 08:19:09;;;;;;;12.18;8.00;;;;;;;;;;5109658;28;20384;-73
2022/07/26 08:21:36;;;;;;;10.45;7.13;;;;;;;;;;5111091;28;20027;-73
2022/07/26 08:24:02;;;;;;;10.32;7.88;;;;;;;;;;5110967;28;20032;-74
2022/07/26 08:26:28;;;;;;;12.00;7.90;;;;;;;;;;5111068;28;20532;-73
2022/07/26 08:28:54;;;;;;;9.75;6.88;;;;;;;;;;5110967;28;20051;-73
2022/07/26 08:31:20;;;;;;;11.27;7.40;;;;;;;;;;5110431;28;20040;-74
2022/07/26 08:33:47;;;;;;;9.70;7.30;;;;;;;;;;5110951;28;20161;-73
2022/07/26 08:36:14;;;;;;;10.95;7.13;;;;;;;;;;5111426;28;20372;-75
2022/07/26 08:38:40;;;;;;;10.90;7.07;;;;;;;;;;5110446;28;20020;-75
2022/07/26 08:41:06;;;;;;;9.45;6.57;;;;;;;;;;5110801;28;20012;-75
2022/07/26 08:43:33;;;;;;;9.13;6.85;;;;;;;;;;5109393;28;20031;-72
2022/07/26 08:46:01;;;;;;;10.88;7.38;;;;;;;;;;5110293;28;20074;-72
2022/07/26 08:48:27;;;;;;;12.65;7.43;;;;;;;;;;5110662;28;20023;-73
2022/07/26 08:50:54;;;;;;;11.80;7.72;;;;;;;;;;5110442;28;20389;-72
2022/07/26 08:53:22;;;;;;;11.52;7.63;;;;;;;;;;5107267;28;20081;-72
2022/07/26 08:55:48;;;;;;;10.18;7.68;;;;;;;;;;5109070;28;20115;-72
2022/07/26 08:58:14;;;;;;;10.43;7.65;;;;;;;;;;5110579;28;20024;-73
2022/07/26 09:00:42;;;;;;;13.15;8.63;;;;;;;;;;5109889;28;20024;-73
2022/07/26 09:03:23;;;;;;;11.13;7.22;;;;;;;;;;5109918;28;20008;-73
2022/07/26 09:05:49;;;;;;;10.68;7.25;;;;;;;;;;5109969;28;20055;-74
2022/07/26 09:08:23;;;;;;;10.45;7.57;;;;;;;;;;5108621;28;20028;-71
2022/07/26 09:10:49;;;;;;;11.13;7.80;;;;;;;;;;5109702;28;20048;-71
2022/07/26 09:13:15;;;;;;;10.35;7.25;;;;;;;;;;5109652;28;20472;-70
2022/07/26 09:15:41;;;;;;;10.93;7.85;;;;;;;;;;5108764;28;20028;-71
2022/07/26 09:18:24;;;;;;;9.70;7.03;;;;;;;;;;5110057;28;20361;-72
2022/07/26 09:20:50;;;;;;;10.48;7.93;;;;;;;;;;5109576;28;20027;-72
2022/07/26 09:23:16;;;;;;;9.40;6.82;;;;;;;;;;5095387;28;20080;-72
2022/07/26 09:25:44;;;;;;;11.68;7.20;;;;;;;;;;5096055;28;20384;-72
2022/07/26 09:28:27;;;;;;;9.70;7.20;;;;;;;;;;5096122;28;20061;-76
2022/07/26 09:31:01;;;;;;;10.43;7.38;;;;;;;;;;5096031;28;20154;-80
2022/07/26 09:33:48;;;;;;;9.75;8.00;;;;;;;;;;5098193;28;20016;-78
2022/07/26 09:36:14;;;;;;;12.30;8.23;;;;;;;;;;5096411;28;20479;-79
2022/07/26 09:38:44;;;;;;;9.73;6.68;;;;;;;;;;5095223;28;20446;-78
2022/07/26 09:41:26;;;;;;;9.50;6.70;;;;;;;;;;5095688;28;20105;-79
2022/07/26 09:43:53;;;;;;;9.93;7.57;;;;;;;;;;5095832;28;20055;-77
2022/07/26 09:46:20;;;;;;;10.10;6.72;;;;;;;;;;5096137;28;20055;-78
2022/07/26 09:48:46;;;;;;;9.25;6.97;;;;;;;;;;5094250;28;20035;-79
2022/07/26 09:51:12;;;;;;;9.73;6.60;;;;;;;;;;5094512;28;20062;-79
2022/07/26 09:53:39;;;;;;;9.65;7.13;;;;;;;;;;5095725;28;20101;-80
2022/07/26 09:56:06;;;;;;;10.43;6.95;;;;;;;;;;5095476;28;20026;-80
2022/07/26 09:58:32;;;;;;;9.32;6.65;;;;;;;;;;5094452;28;20476;-78
2022/07/26 10:00:59;;;;;;;11.00;7.85;;;;;;;;;;5095635;28;20028;-79
2022/07/26 10:03:25;;;;;;;11.00;7.15;;;;;;;;;;5095425;28;20019;-78
2022/07/26 10:05:51;;;;;;;10.45;7.55;;;;;;;;;;5095534;28;20437;-78
2022/07/26 10:08:18;;;;;;;11.13;8.77;;;;;;;;;;5095488;28;20052;-78
2022/07/26 10:10:49;;;;;;;11.45;8.30;;;;;;;;;;5094719;28;20048;-78
2022/07/26 10:13:15;;;;;;;12.32;9.35;;;;;;;;;;5095335;28;20484;-77
2022/07/26 10:15:51;;;;;;;13.20;9.52;;;;;;;;;;5095647;28;20024;-79
2022/07/26 10:18:35;;;;;;;11.80;8.48;;;;;;;;;;5093459;28;20384;-76
2022/07/26 10:21:20;;;;;;;11.13;8.32;;;;;;;;;;5095224;28;20070;-79
2022/07/26 10:24:00;;;;;;;11.48;8.40;;;;;;;;;;5094743;28;20454;-77
2022/07/26 10:26:35;;;;;;;11.40;8.63;;;;;;;;;;5093983;28;20026;-78
2022/07/26 10:29:16;;;;;;;12.00;7.97;;;;;;;;;;5093755;28;20020;-78
2022/07/26 10:31:45;;;;;;;12.55;8.75;;;;;;;;;;5094767;28;20112;-77
2022/07/26 10:34:28;;;;;;;12.35;7.97;;;;;;;;;;5094091;28;20044;-80
2022/07/26 10:36:59;;;;;;;12.05;8.07;;;;;;;;;;5093706;28;20028;-78
2022/07/26 10:39:26;;;;;;;11.95;7.50;;;;;;;;;;5094701;28;20032;-80
2022/07/26 10:42:06;;;;;;;11.30;8.20;;;;;;;;;;5095095;28;20103;-79
2022/07/26 10:44:46;;;;;;;9.60;7.97;;;;;;;;;;5094485;28;20476;-79
2022/07/26 10:47:17;;;;;;;11.48;7.78;;;;;;;;;;5095109;28;20028;-80
2022/07/26 10:49:44;;;;;;;9.30;6.70;;;;;;;;;;5095033;28;20028;-79
2022/07/26 10:52:20;;;;;;;9.15;6.43;;;;;;;;;;5094456;28;20016;-80
2022/07/26 10:55:04;;;;;;;7.78;5.60;;;;;;;;;;5094747;28;20099;-80
2022/07/26 10:57:31;;;;;;;10.98;7.88;;;;;;;;;;5094704;28;20028;-78
2022/07/26 10:59:58;;;;;;;9.90;6.95;;;;;;;;;;5094153;28;20101;-80
2022/07/26 11:02:31;;;;;;;10.50;7.10;;;;;;;;;;5094691;28;20023;-79
2022/07/26 11:05:13;;;;;;;11.13;8.07;;;;;;;;;;5093213;28;20035;-79
2022/07/26 11:07:53;;;;;;;13.13;8.48;;;;;;;;;;5093949;28;20085;-78
2022/07/26 11:10:23;;;;;;;12.60;8.68;;;;;;;;;;5093932;28;20135;-75
2022/07/26 11:12:58;;;;;;;9.93;7.32;;;;;;;;;;5093954;28;20052;-76
2022/07/26 11:15:24;;;;;;;11.00;7.78;;;;;;;;;;5092869;28;20085;-77
2022/07/26 11:17:50;;;;;;;10.25;7.60;;;;;;;;;;5094156;28;20052;-76
2022/07/26 11:20:25;;;;;;;9.68;7.18;;;;;;;;;;5093639;28;20048;-76
2022/07/26 11:22:51;;;;;;;10.63;7.00;;;;;;;;;;5093118;28;20430;-78
2022/07/26 11:25:21;;;;;;;10.88;7.60;;;;;;;;;;5092762;28;20405;-78
2022/07/26 11:28:03;;;;;;;10.35;7.38;;;;;;;;;;5092475;28;20384;-79
2022/07/26 11:30:29;;;;;;;9.68;6.47;;;;;;;;;;5093939;28;20035;-77
2022/07/26 11:32:58;;;;;;;10.93;6.50;;;;;;;;;;5092879;28;20468;-80
2022/07/26 11:35:25;;;;;;;8.98;5.53;;;;;;;;;;5093879;28;20111;-79
2022/07/26 11:37:55;;;;;;;8.07;5.60;;;;;;;;;;5093947;28;20058;-78
2022/07/26 11:40:40;;;;;;;8.57;5.80;;;;;;;;;;5093792;28;20491;-78
2022/07/26 11:43:06;;;;;;;7.85;5.57;;;;;;;;;;5092363;28;20020;-80
2022/07/26 11:45:32;;;;;;;9.63;5.60;;;;;;;;;;5093259;28;20052;-80
2022/07/26 11:47:59;;;;;;;11.00;5.93;;;;;;;;;;5093324;28;20023;-79
2022/07/26 11:50:25;;;;;;;7.05;5.00;;;;;;;;;;5092230;28;20036;-78
2022/07/26 11:52:52;;;;;;;7.25;5.07;;;;;;;;;;5093875;28;20059;-78
2022/07/26 11:55:30;;;;;;;7.95;6.05;;;;;;;;;;5091965;28;20020;-77
2022/07/26 11:58:03;;;;;;;7.80;5.38;;;;;;;;;;5092303;28;20027;-79
2022/07/26 12:00:29;;;;;;;7.55;5.15;;;;;;;;;;5093658;28;20429;-78
2022/07/26 12:02:56;;;;;;;7.60;4.88;;;;;;;;;;5093279;28;20024;-78
2022/07/26 12:05:22;;;;;;;7.28;4.97;;;;;;;;;;5093597;28;20028;-79
2022/07/26 12:07:56;;;;;;;6.30;4.28;;;;;;;;;;5093493;28;20089;-79
2022/07/26 12:10:22;;;;;;;7.38;4.50;;;;;;;;;;5091364;28;20044;-79
2022/07/26 12:12:48;;;;;;;6.28;4.32;;;;;;;;;;5092152;28;20039;-78
2022/07/26 12:15:14;;;;;;;7.80;4.55;;;;;;;;;;5093472;28;20073;-77
2022/07/26 12:17:57;;;;;;;6.43;4.53;;;;;;;;;;5091546;28;20507;-78
2022/07/26 12:20:26;;;;;;;6.65;4.55;;;;;;;;;;5091704;28;20024;-79
2022/07/26 12:22:54;;;;;;;7.80;4.63;;;;;;;;;;5113644;28;20031;-79
2022/07/26 12:25:27;;;;;;;5.70;3.92;;;;;;;;;;5113812;28;20050;-78
2022/07/26 12:27:53;;;;;;;7.55;4.60;;;;;;;;;;5113878;28;20447;-82
2022/07/26 12:30:23;;;;;;;6.93;4.70;;;;;;;;;;5098177;28;20044;-79
2022/07/26 12:32:54;;;;;;;7.47;4.43;;;;;;;;;;5094408;28;20499;-83
2022/07/26 12:35:32;;;;;;;5.25;3.50;;;;;;;;;;5094094;28;20024;-80
2022/07/26 12:37:58;;;;;;;5.90;4.13;;;;;;;;;;5102134;28;20540;-79
2022/07/26 12:40:25;;;;;;;6.68;4.05;;;;;;;;;;5115133;28;20106;-76
2022/07/26 12:42:51;;;;;;;5.55;3.80;;;;;;;;;;5113779;28;20108;-82
2022/07/26 12:45:19;;;;;;;9.25;4.00;;;;;;;;;;5114336;28;20058;-82
2022/07/26 12:47:47;;;;;;;4.97;3.40;;;;;;;;;;5114903;28;20091;-82
2022/07/26 12:50:13;;;;;;;5.55;3.95;;;;;;;;;;5113890;28;20027;-81
2022/07/26 12:52:40;;;;;;;5.05;3.50;;;;;;;;;;5113213;28;20060;-82
2022/07/26 12:55:07;;;;;;;6.93;4.25;;;;;;;;;;5110269;28;20092;-80
2022/07/26 12:57:34;;;;;;;4.47;3.17;;;;;;;;;;5106617;28;20012;-82
2022/07/26 13:00:00;;;;;;;6.78;3.95;;;;;;;;;;5094122;28;20172;-78
2022/07/26 13:02:26;;;;;;;5.95;3.33;;;;;;;;;;5096440;28;20031;-76
2022/07/26 13:04:52;;;;;;;5.90;3.40;;;;;;;;;;5096933;28;20055;-80
2022/07/26 13:07:19;;;;;;;5.55;3.42;;;;;;;;;;5096111;28;20039;-78
2022/07/26 13:09:45;;;;;;;5.88;3.58;;;;;;;;;;5096489;28;20043;-78
2022/07/26 13:12:13;;;;;;;4.75;3.20;;;;;;;;;;5096001;28;20484;-80
2022/07/26 13:14:39;;;;;;;5.35;3.38;;;;;;;;;;5092842;28;20541;-79
2022/07/26 13:17:07;;;;;;;5.25;3.42;;;;;;;;;;5096899;28;20491;-80
2022/07/26 13:19:34;;;;;;;6.57;3.10;;;;;;;;;;5094552;28;20027;-81
2022/07/26 13:22:01;;;;;;;4.85;3.60;;;;;;;;;;5096230;28;20020;-78
2022/07/26 13:24:28;;;;;;;4.10;2.97;;;;;;;;;;5095290;28;20024;-82
2022/07/26 13:26:54;;;;;;;3.97;2.80;;;;;;;;;;5092492;28;20063;-77
2022/07/26 13:29:20;;;;;;;6.45;3.10;;;;;;;;;;5095991;28;20021;-73
2022/07/26 13:31:47;;;;;;;4.82;3.13;;;;;;;;;;5096026;28;20032;-74
2022/07/26 13:34:14;;;;;;;5.45;3.25;;;;;;;;;;5095685;28;20532;-74
2022/07/26 13:36:40;;;;;;;5.30;3.17;;;;;;;;;;5094669;28;20031;-74
2022/07/26 13:39:06;;;;;;;4.10;2.90;;;;;;;;;;5094593;28;20020;-73
2022/07/26 13:41:32;;;;;;;3.88;2.90;;;;;;;;;;5095507;28;20092;-74
2022/07/26 13:43:58;;;;;;;6.68;3.15;;;;;;;;;;5095815;28;20032;-73
2022/07/26 13:46:28;;;;;;;4.53;3.08;;;;;;;;;;5094573;28;20078;-72
2022/07/26 13:48:55;;;;;;;5.53;3.53;;;;;;;;;;5094257;28;20035;-72
2022/07/26 13:51:21;;;;;;;4.15;2.92;;;;;;;;;;5095646;28;20028;-73
2022/07/26 13:53:47;;;;;;;4.50;3.25;;;;;;;;;;5095798;28;20020;-73
2022/07/26 13:56:13;;;;;;;4.30;2.70;;;;;;;;;;5095251;28;20028;-74
2022/07/26 13:58:40;;;;;;;4.00;2.78;;;;;;;;;;5095665;28;20149;-73
2022/07/26 14:01:06;;;;;;;4.93;3.33;;;;;;;;;;5095426;28;20059;-74
2022/07/26 14:03:32;;;;;;;4.53;3.38;;;;;;;;;;5093874;28;20020;-72
2022/07/26 14:05:58;;;;;;;3.88;2.50;;;;;;;;;;5095346;28;20190;-72
2022/07/26 14:08:24;;;;;;;3.33;2.65;;;;;;;;;;5094911;28;20069;-72
2022/07/26 14:10:51;;;;;;;5.18;2.90;;;;;;;;;;5093906;28;20051;-72
2022/07/26 14:13:17;;;;;;;3.72;2.55;;;;;;;;;;5095270;28;20042;-73
2022/07/26 14:15:43;;;;;;;4.15;2.80;;;;;;;;;;5094919;28;20055;-73
2022/07/26 14:18:09;;;;;;;4.88;2.75;;;;;;;;;;5095370;28;20379;-72
2022/07/26 14:20:36;;;;;;;3.80;2.80;;;;;;;;;;5095355;28;20020;-73
2022/07/26 14:23:02;;;;;;;3.60;2.53;;;;;;;;;;5094982;28;20042;-73
2022/07/26 14:25:29;;;;;;;4.88;2.45;;;;;;;;;;5095339;28;20085;-73
2022/07/26 14:27:55;;;;;;;3.67;2.47;;;;;;;;;;5095222;28;20539;-73
2022/07/26 14:30:22;;;;;;;4.10;2.53;;;;;;;;;;5094652;28;20399;-72
2022/07/26 14:32:48;;;;;;;3.85;2.47;;;;;;;;;;5095080;28;20027;-72
2022/07/26 14:35:16;;;;;;;3.17;2.20;;;;;;;;;;5095058;28;20028;-73
2022/07/26 14:37:42;;;;;;;3.47;2.28;;;;;;;;;;5094472;28;20021;-73
2022/07/26 14:40:09;;;;;;;4.57;2.72;;;;;;;;;;5094945;28;20027;-73
2022/07/26 14:42:35;;;;;;;2.95;2.20;;;;;;;;;;5093503;28;20032;-73
2022/07/26 14:45:01;;;;;;;3.72;2.08;;;;;;;;;;5094540;28;20024;-73
2022/07/26 14:47:28;;;;;;;4.57;2.40;;;;;;;;;;5094720;28;20024;-73
2022/07/26 14:49:54;;;;;;;3.75;2.35;;;;;;;;;;5094638;28;20024;-73
2022/07/26 14:52:20;;;;;;;3.58;2.40;;;;;;;;;;5092951;28;20109;-73
2022/07/26 14:54:46;;;;;;;4.03;2.60;;;;;;;;;;5094575;28;20472;-73
2022/07/26 14:57:12;;;;;;;3.13;2.03;;;;;;;;;;5094557;28;20107;-73
2022/07/26 14:59:38;;;;;;;4.05;2.50;;;;;;;;;;5094120;28;20433;-72
2022/07/26 15:02:04;;;;;;;4.18;2.50;;;;;;;;;;5094523;28;20027;-74
2022/07/26 15:04:31;;;;;;;3.03;2.20;;;;;;;;;;5094086;28;20055;-73
2022/07/26 15:06:57;;;;;;;2.70;2.28;;;;;;;;;;5094380;28;20023;-74
2022/07/26 15:09:23;;;;;;;3.22;2.58;;;;;;;;;;5092990;28;20028;-74
2022/07/26 15:11:49;;;;;;;3.20;2.30;;;;;;;;;;5093808;28;20143;-73
2022/07/26 15:14:15;;;;;;;3.85;2.53;;;;;;;;;;5094249;28;20429;-74
2022/07/26 15:16:41;;;;;;;2.70;2.22;;;;;;;;;;5092949;28;20484;-73
2022/07/26 15:19:07;;;;;;;4.03;2.42;;;;;;;;;;5093471;28;20025;-73
2022/07/26 15:21:33;;;;;;;3.70;2.30;;;;;;;;;;5094039;28;20020;-72
2022/07/26 15:24:00;;;;;;;4.22;2.40;;;;;;;;;;5092846;28;20115;-73
2022/07/26 15:26:27;;;;;;;3.63;2.50;;;;;;;;;;5093675;28;20468;-73
2022/07/26 15:28:53;;;;;;;3.13;2.25;;;;;;;;;;5094006;28;20027;-72
2022/07/26 15:31:19;;;;;;;3.95;2.45;;;;;;;;;;5092506;28;20058;-72
2022/07/26 15:33:45;;;;;;;3.47;2.40;;;;;;;;;;5092171;28;20020;-73
2022/07/26 15:36:11;;;;;;;4.78;2.67;;;;;;;;;;5092532;28;20031;-73
2022/07/26 15:38:43;;;;;;;3.47;2.67;;;;;;;;;;5093878;28;20027;-73
2022/07/26 15:41:09;;;;;;;4.45;2.92;;;;;;;;;;5093514;28;20078;-74
2022/07/26 15:43:35;;;;;;;3.08;2.58;;;;;;;;;;5093753;28;20028;-73
2022/07/26 15:46:01;;;;;;;5.05;2.83;;;;;;;;;;5092358;28;20032;-74
2022/07/26 15:48:27;;;;;;;4.82;2.60;;;;;;;;;;5093317;28;20460;-73
2022/07/26 15:50:53;;;;;;;4.47;2.95;;;;;;;;;;5092244;28;20040;-74
2022/07/26 15:53:20;;;;;;;3.72;2.58;;;;;;;;;;5093574;28;20054;-73
2022/07/26 15:55:46;;;;;;;3.65;2.58;;;;;;;;;;5091997;28;20050;-73
2022/07/26 15:58:12;;;;;;;4.32;2.70;;;;;;;;;;5093586;28;20045;-73
2022/07/26 16:00:38;;;;;;;4.35;2.80;;;;;;;;;;5093461;28;20062;-73
2022/07/26 16:03:04;;;;;;;4.68;2.60;;;;;;;;;;5093102;28;20024;-73
2022/07/26 16:05:31;;;;;;;3.95;2.50;;;;;;;;;;5093621;28;20020;-73
2022/07/26 16:07:58;;;;;;;3.33;2.67;;;;;;;;;;5091962;28;20353;-73
2022/07/26 16:10:24;;;;;;;3.78;2.78;;;;;;;;;;5093100;28;20055;-73
2022/07/26 16:12:50;;;;;;;4.13;2.90;;;;;;;;;;5093442;28;20074;-73
2022/07/26 16:15:16;;;;;;;4.25;2.60;;;;;;;;;;5092966;28;20024;-73
2022/07/26 16:17:42;;;;;;;3.33;2.30;;;;;;;;;;5092005;28;20373;-73
2022/07/26 16:20:09;;;;;;;3.47;2.78;;;;;;;;;;5093333;28;20020;-73
2022/07/26 16:22:39;;;;;;;4.38;2.38;;;;;;;;;;5093153;28;20024;-72
2022/07/26 16:25:06;;;;;;;4.72;2.70;;;;;;;;;;5091939;28;20137;-72
2022/07/26 16:27:32;;;;;;;4.88;2.58;;;;;;;;;;5093208;28;20089;-72